Time;durP1;ratioP1;P1;durP2;ratioP2;P2;SDS_P1;SDS_P2;PMS_P1;PMS_P2;Temp;Humidity;BMP_temperature;BMP_pressure;BME280_temperature;BME280_humidity;BME280_pressure;Samples;Min_cycle;Max_cycle;Signal;HPM_P1;HPM_P2
2023/07/31 00:00:08;;;;;;;3.40;0.73;;;15.50;99.90;;;;;;5036603;28;20029;-75
2023/07/31 00:02:34;;;;;;;2.25;0.90;;;15.60;99.90;;;;;;5018947;28;20034;-75
2023/07/31 00:05:01;;;;;;;2.17;0.80;;;15.50;99.90;;;;;;5036387;28;20028;-75
2023/07/31 00:07:26;;;;;;;1.63;0.80;;;15.50;99.90;;;;;;5035314;28;20029;-75
2023/07/31 00:09:53;;;;;;;1.70;0.60;;;15.60;99.90;;;;;;5018633;28;20029;-75
2023/07/31 00:12:19;;;;;;;1.30;0.60;;;15.60;99.90;;;;;;5036356;28;20481;-75
2023/07/31 00:14:45;;;;;;;1.70;0.57;;;15.60;99.90;;;;;;5035032;28;20037;-76
2023/07/31 00:17:11;;;;;;;1.45;0.52;;;15.60;99.90;;;;;;5018760;28;20112;-75
2023/07/31 00:19:37;;;;;;;4.13;0.60;;;15.60;99.90;;;;;;5034866;28;20049;-79
2023/07/31 00:22:03;;;;;;;1.25;0.60;;;15.60;99.90;;;;;;5036166;28;20034;-78
2023/07/31 00:24:28;;;;;;;1.48;0.50;;;15.70;99.90;;;;;;5034865;28;20040;-78
2023/07/31 00:26:54;;;;;;;2.63;0.80;;;15.70;99.90;;;;;;5036103;28;20386;-78
2023/07/31 00:29:20;;;;;;;1.50;0.60;;;15.70;99.90;;;;;;5034813;28;20413;-77
2023/07/31 00:31:45;;;;;;;1.77;0.50;;;15.70;99.90;;;;;;5033672;28;20054;-77
2023/07/31 00:34:11;;;;;;;1.83;0.77;;;15.70;99.90;;;;;;5017941;28;20033;-77
2023/07/31 00:36:36;;;;;;;2.55;0.80;;;15.70;99.90;;;;;;5035857;28;20025;-77
2023/07/31 00:39:02;;;;;;;3.65;1.13;;;15.70;99.90;;;;;;5018149;28;20031;-78
2023/07/31 00:41:28;;;;;;;4.22;1.60;;;15.70;99.90;;;;;;5034582;28;20056;-77
2023/07/31 00:43:53;;;;;;;4.47;1.35;;;15.70;99.90;;;;;;5018072;28;20076;-78
2023/07/31 00:46:20;;;;;;;5.22;2.08;;;15.80;99.90;;;;;;5034374;28;20041;-79
2023/07/31 00:48:46;;;;;;;7.95;3.08;;;15.80;99.90;;;;;;5034746;28;20038;-78
2023/07/31 00:51:11;;;;;;;8.55;3.83;;;15.80;99.90;;;;;;5036066;28;20025;-78
2023/07/31 00:53:37;;;;;;;9.30;3.85;;;15.90;99.90;;;;;;5034429;28;20440;-78
2023/07/31 00:56:04;;;;;;;13.60;4.13;;;15.90;99.90;;;;;;5034372;28;20026;-78
2023/07/31 00:58:30;;;;;;;21.55;7.50;;;16.00;99.90;;;;;;5034226;28;20436;-80
2023/07/31 01:00:55;;;;;;;20.65;8.27;;;16.00;99.90;;;;;;5031740;28;20033;-78
2023/07/31 01:03:21;;;;;;;29.92;9.57;;;16.10;99.90;;;;;;5020371;28;20041;-78
2023/07/31 01:05:56;;;;;;;28.17;10.50;;;16.20;99.90;;;;;;5014336;28;20076;-79
2023/07/31 01:08:29;;;;;;;29.02;10.18;;;16.20;99.90;;;;;;5013976;28;20029;-78
2023/07/31 01:11:00;;;;;;;30.98;11.40;;;16.20;99.90;;;;;;5015660;28;20030;-79
2023/07/31 01:13:27;;;;;;;38.30;13.55;;;16.30;99.90;;;;;;5015373;28;20033;-79
2023/07/31 01:15:53;;;;;;;26.13;10.60;;;16.30;99.90;;;;;;5014363;28;20088;-78
2023/07/31 01:18:19;;;;;;;26.55;10.25;;;16.40;99.90;;;;;;5015392;28;20414;-79
2023/07/31 01:20:54;;;;;;;24.35;11.23;;;16.40;99.90;;;;;;5014134;28;20037;-80
2023/07/31 01:23:39;;;;;;;29.58;12.38;;;16.40;99.90;;;;;;5015466;28;20030;-78
2023/07/31 01:26:29;;;;;;;28.13;9.55;;;16.40;99.90;;;;;;4994546;28;20038;-80
2023/07/31 01:28:58;;;;;;;27.10;10.05;;;16.50;99.90;;;;;;5015357;28;20029;-79
2023/07/31 01:31:25;;;;;;;32.33;10.63;;;16.50;99.90;;;;;;5014984;28;20092;-78
2023/07/31 01:33:54;;;;;;;27.58;10.73;;;16.50;99.90;;;;;;5013966;28;20026;-78
2023/07/31 01:36:20;;;;;;;25.08;9.80;;;16.50;99.90;;;;;;5013806;28;20026;-78
2023/07/31 01:38:45;;;;;;;26.80;10.57;;;16.50;99.90;;;;;;4997620;28;20091;-78
2023/07/31 01:41:11;;;;;;;27.65;9.82;;;16.60;99.90;;;;;;5013593;28;20030;-77
2023/07/31 01:43:37;;;;;;;36.78;10.90;;;16.60;99.90;;;;;;4997328;28;20063;-77
2023/07/31 01:46:02;;;;;;;24.40;11.18;;;16.60;99.90;;;;;;4997304;28;20037;-80
2023/07/31 01:48:28;;;;;;;23.30;9.40;;;16.60;99.90;;;;;;5014854;28;20126;-77
2023/07/31 01:50:53;;;;;;;30.50;10.30;;;16.60;99.90;;;;;;5013851;28;20070;-78
2023/07/31 01:53:19;;;;;;;24.63;10.05;;;16.60;99.90;;;;;;5014971;28;20045;-78
2023/07/31 01:55:45;;;;;;;25.95;10.40;;;16.60;99.90;;;;;;4997093;28;20489;-78
2023/07/31 01:58:10;;;;;;;26.25;10.20;;;16.60;99.90;;;;;;4996911;28;20030;-79
2023/07/31 02:00:36;;;;;;;23.40;9.95;;;16.60;99.90;;;;;;4996984;28;20022;-77
2023/07/31 02:03:01;;;;;;;25.80;9.38;;;16.60;99.90;;;;;;4997192;28;20033;-79
2023/07/31 02:05:27;;;;;;;28.00;9.68;;;16.70;99.90;;;;;;5013528;28;20034;-77
2023/07/31 02:07:52;;;;;;;25.83;9.63;;;16.60;99.90;;;;;;5013177;28;20069;-79
2023/07/31 02:10:18;;;;;;;26.50;9.38;;;16.70;99.90;;;;;;5013261;28;20382;-78
2023/07/31 02:12:44;;;;;;;18.75;7.28;;;16.70;99.90;;;;;;5013299;28;20474;-78
2023/07/31 02:15:09;;;;;;;28.15;9.07;;;16.70;99.90;;;;;;5013634;28;20029;-78
2023/07/31 02:17:35;;;;;;;20.42;8.82;;;16.70;99.90;;;;;;5014335;28;20037;-78
2023/07/31 02:20:01;;;;;;;25.73;8.35;;;16.60;99.90;;;;;;4996808;28;20065;-77
2023/07/31 02:22:26;;;;;;;27.13;8.98;;;16.70;99.90;;;;;;4996617;28;20029;-79
2023/07/31 02:24:52;;;;;;;24.25;8.40;;;16.60;99.90;;;;;;5014209;28;20037;-78
2023/07/31 02:27:17;;;;;;;19.25;7.78;;;16.60;99.90;;;;;;5012895;28;20034;-78
2023/07/31 02:29:43;;;;;;;22.45;7.82;;;16.60;99.90;;;;;;5014396;28;20091;-77
2023/07/31 02:32:10;;;;;;;29.23;8.52;;;16.60;99.90;;;;;;5013723;28;20441;-77
2023/07/31 02:34:35;;;;;;;21.05;8.18;;;16.60;99.90;;;;;;5009459;28;20464;-77
2023/07/31 02:37:01;;;;;;;24.25;7.95;;;16.50;99.90;;;;;;5012757;28;20112;-77
2023/07/31 02:39:27;;;;;;;21.02;7.97;;;16.50;99.90;;;;;;5012655;28;20030;-77
2023/07/31 02:41:52;;;;;;;23.33;8.85;;;16.50;99.90;;;;;;5013016;28;20034;-77
2023/07/31 02:44:18;;;;;;;23.30;8.20;;;16.60;99.90;;;;;;5013823;28;20034;-78
2023/07/31 02:46:43;;;;;;;28.85;10.02;;;16.50;99.90;;;;;;5012628;28;20375;-78
2023/07/31 02:49:09;;;;;;;19.92;7.72;;;16.50;99.90;;;;;;5013048;28;20442;-78
2023/07/31 02:51:34;;;;;;;27.40;8.38;;;16.50;99.90;;;;;;5012784;28;20061;-79
2023/07/31 02:54:00;;;;;;;23.83;7.75;;;16.60;99.90;;;;;;5012515;28;20485;-78
2023/07/31 02:56:26;;;;;;;22.77;8.35;;;16.60;99.90;;;;;;5011881;28;20061;-78
2023/07/31 02:58:51;;;;;;;27.55;9.00;;;16.60;99.90;;;;;;5012732;28;20073;-79
2023/07/31 03:01:17;;;;;;;21.38;7.68;;;16.60;99.90;;;;;;5012340;28;20026;-79
2023/07/31 03:03:42;;;;;;;29.42;8.93;;;16.60;99.90;;;;;;4996015;28;20025;-79
2023/07/31 03:06:08;;;;;;;24.27;8.75;;;16.60;99.90;;;;;;4995874;28;20076;-79
2023/07/31 03:08:33;;;;;;;25.70;8.98;;;16.60;99.90;;;;;;5013382;28;20213;-79
2023/07/31 03:10:59;;;;;;;26.60;8.65;;;16.60;99.90;;;;;;4996152;28;20386;-80
2023/07/31 03:13:25;;;;;;;24.17;8.68;;;16.60;99.90;;;;;;5013503;28;20037;-79
2023/07/31 03:15:51;;;;;;;26.13;8.07;;;16.60;99.90;;;;;;5012286;28;20036;-80
2023/07/31 03:18:16;;;;;;;25.15;8.35;;;16.60;99.90;;;;;;5013494;28;20061;-79
2023/07/31 03:20:44;;;;;;;27.23;9.57;;;16.60;99.90;;;;;;5012134;28;20033;-77
2023/07/31 03:23:09;;;;;;;21.98;7.90;;;16.70;99.90;;;;;;5012136;28;20022;-77
2023/07/31 03:25:35;;;;;;;23.02;8.63;;;16.70;99.90;;;;;;5013375;28;20061;-77
2023/07/31 03:28:00;;;;;;;27.48;8.55;;;16.70;99.90;;;;;;4995844;28;20121;-77
2023/07/31 03:30:26;;;;;;;22.33;6.97;;;16.70;99.90;;;;;;5013375;28;20556;-77
2023/07/31 03:32:52;;;;;;;23.05;7.82;;;16.70;99.90;;;;;;5013072;28;20042;-76
2023/07/31 03:35:18;;;;;;;18.85;6.63;;;16.60;99.90;;;;;;5013438;28;20359;-77
2023/07/31 03:37:43;;;;;;;18.70;7.13;;;16.70;99.90;;;;;;5011987;28;20022;-76
2023/07/31 03:40:10;;;;;;;19.45;6.68;;;16.70;99.90;;;;;;5012079;28;20026;-77
2023/07/31 03:42:35;;;;;;;17.73;6.30;;;16.70;99.90;;;;;;5012577;28;20405;-78
2023/07/31 03:45:01;;;;;;;15.85;6.05;;;16.70;99.90;;;;;;5012251;28;20121;-80
2023/07/31 03:47:26;;;;;;;19.60;6.25;;;16.70;99.90;;;;;;4995836;28;20033;-77
2023/07/31 03:49:52;;;;;;;22.75;7.13;;;16.70;99.90;;;;;;5011810;28;20033;-77
2023/07/31 03:52:18;;;;;;;19.67;6.70;;;16.70;99.90;;;;;;5011690;28;20116;-77
2023/07/31 03:54:44;;;;;;;21.85;6.05;;;16.70;99.90;;;;;;4995841;28;20037;-76
2023/07/31 03:57:11;;;;;;;19.20;6.40;;;16.80;99.90;;;;;;5012137;28;20022;-77
2023/07/31 03:59:38;;;;;;;14.00;5.65;;;16.70;99.90;;;;;;5013166;28;20101;-76
2023/07/31 04:02:04;;;;;;;22.73;7.15;;;16.70;99.90;;;;;;5013027;28;20127;-77
2023/07/31 04:04:30;;;;;;;19.33;7.07;;;16.70;99.90;;;;;;4995730;28;20474;-77
2023/07/31 04:06:56;;;;;;;18.20;6.30;;;16.70;99.90;;;;;;5013281;28;20057;-76
2023/07/31 04:09:21;;;;;;;20.05;6.50;;;16.70;99.90;;;;;;5016673;28;20084;-76
2023/07/31 04:11:47;;;;;;;17.63;6.63;;;16.70;99.90;;;;;;4999083;28;20037;-77
2023/07/31 04:14:12;;;;;;;20.17;8.02;;;16.70;99.90;;;;;;5013866;28;20034;-76
2023/07/31 04:16:38;;;;;;;18.33;6.18;;;16.70;99.90;;;;;;4996156;28;20050;-77
2023/07/31 04:19:04;;;;;;;13.30;5.53;;;16.70;99.90;;;;;;5011401;28;20104;-77
2023/07/31 04:21:29;;;;;;;15.55;5.95;;;16.70;99.90;;;;;;5006339;28;20030;-80
2023/07/31 04:23:56;;;;;;;18.55;6.47;;;16.80;99.90;;;;;;5013045;28;20030;-80
2023/07/31 04:26:21;;;;;;;15.93;5.65;;;16.80;99.90;;;;;;5013201;28;20446;-82
2023/07/31 04:28:47;;;;;;;19.98;7.38;;;16.80;99.90;;;;;;5015215;28;20064;-80
2023/07/31 04:31:13;;;;;;;19.83;6.50;;;16.80;99.90;;;;;;5015515;28;20092;-82
2023/07/31 04:33:39;;;;;;;19.80;6.10;;;16.80;99.90;;;;;;5014989;28;20045;-81
2023/07/31 04:36:05;;;;;;;17.15;5.70;;;16.80;99.90;;;;;;5016464;28;20037;-78
2023/07/31 04:38:30;;;;;;;15.90;6.47;;;16.90;99.90;;;;;;5031705;28;20049;-76
2023/07/31 04:40:56;;;;;;;15.05;6.85;;;16.90;99.90;;;;;;5015256;28;20478;-76
2023/07/31 04:43:21;;;;;;;19.42;6.05;;;16.90;99.90;;;;;;5014877;28;20026;-76
2023/07/31 04:45:48;;;;;;;14.73;5.97;;;16.90;99.90;;;;;;5016170;28;20026;-76
2023/07/31 04:48:14;;;;;;;18.65;7.00;;;16.90;99.90;;;;;;5014639;28;20030;-76
2023/07/31 04:50:40;;;;;;;19.80;7.18;;;16.90;99.90;;;;;;5014699;28;20046;-77
2023/07/31 04:53:05;;;;;;;14.88;5.57;;;16.90;99.90;;;;;;5031189;28;20119;-77
2023/07/31 04:55:31;;;;;;;13.45;6.35;;;16.90;99.90;;;;;;5015766;28;20030;-76
2023/07/31 04:57:58;;;;;;;12.10;5.00;;;17.00;99.90;;;;;;5014397;28;20080;-76
2023/07/31 05:00:24;;;;;;;21.15;5.95;;;17.00;99.90;;;;;;5015653;28;20029;-77
2023/07/31 05:02:49;;;;;;;17.20;6.05;;;16.90;99.90;;;;;;5015637;28;20046;-76
2023/07/31 05:05:15;;;;;;;15.50;6.13;;;16.90;99.90;;;;;;4998178;28;20085;-76
2023/07/31 05:07:41;;;;;;;12.93;5.15;;;17.00;99.90;;;;;;5014492;28;20513;-77
2023/07/31 05:10:07;;;;;;;19.02;6.05;;;17.00;99.90;;;;;;5015414;28;20072;-78
2023/07/31 05:12:32;;;;;;;16.30;6.20;;;17.00;99.90;;;;;;4998094;28;20044;-80
2023/07/31 05:14:58;;;;;;;19.15;7.07;;;17.00;99.90;;;;;;5015522;28;20367;-80
2023/07/31 05:17:23;;;;;;;17.27;6.20;;;17.00;99.90;;;;;;4998173;28;20368;-79
2023/07/31 05:19:49;;;;;;;18.20;4.97;;;17.00;99.90;;;;;;5013819;28;20030;-81
2023/07/31 05:22:15;;;;;;;13.27;4.75;;;17.00;99.90;;;;;;4997926;28;20030;-80
2023/07/31 05:24:40;;;;;;;15.10;5.38;;;17.00;99.90;;;;;;5014232;28;20386;-78
2023/07/31 05:27:06;;;;;;;19.05;7.03;;;17.00;99.90;;;;;;5014084;28;20034;-80
2023/07/31 05:29:32;;;;;;;15.13;5.15;;;16.90;99.90;;;;;;5014023;28;20034;-81
2023/07/31 05:31:57;;;;;;;14.73;5.43;;;17.00;99.90;;;;;;5013739;28;20049;-82
2023/07/31 05:34:23;;;;;;;15.70;5.85;;;16.90;99.90;;;;;;5015023;28;20046;-81
2023/07/31 05:36:49;;;;;;;16.80;4.90;;;16.90;99.90;;;;;;5013950;28;20474;-79
2023/07/31 05:39:14;;;;;;;15.98;5.07;;;16.90;99.90;;;;;;5013803;28;20026;-81
2023/07/31 05:41:40;;;;;;;11.45;5.32;;;16.90;99.90;;;;;;5030180;28;20025;-77
2023/07/31 05:44:05;;;;;;;14.73;5.88;;;16.80;99.90;;;;;;5013651;28;20034;-80
2023/07/31 05:46:31;;;;;;;13.73;4.43;;;16.90;99.90;;;;;;5013733;28;20065;-76
2023/07/31 05:48:57;;;;;;;15.43;5.90;;;16.80;99.90;;;;;;4997276;28;20118;-77
2023/07/31 05:51:22;;;;;;;16.63;5.75;;;16.80;99.90;;;;;;4997619;28;20413;-76
2023/07/31 05:53:48;;;;;;;13.45;5.15;;;16.70;99.90;;;;;;5013452;28;20146;-76
2023/07/31 05:56:13;;;;;;;12.68;4.68;;;16.70;99.90;;;;;;5014861;28;20501;-76
2023/07/31 05:58:39;;;;;;;14.20;4.88;;;16.70;99.90;;;;;;5013472;28;20025;-78
2023/07/31 06:01:05;;;;;;;19.02;6.25;;;16.60;99.90;;;;;;5014881;28;20105;-78
2023/07/31 06:03:30;;;;;;;19.23;6.53;;;16.60;99.90;;;;;;5009726;28;20030;-78
2023/07/31 06:05:56;;;;;;;14.43;6.00;;;16.60;99.90;;;;;;5004045;28;20156;-78
2023/07/31 06:08:21;;;;;;;13.73;5.38;;;16.50;99.90;;;;;;5012576;28;20478;-76
2023/07/31 06:10:47;;;;;;;12.93;4.28;;;16.50;99.90;;;;;;5013037;28;20033;-76
2023/07/31 06:13:13;;;;;;;13.43;4.20;;;16.50;99.90;;;;;;5013015;28;20060;-76
2023/07/31 06:15:38;;;;;;;10.90;4.68;;;16.60;99.90;;;;;;5010952;28;20058;-77
2023/07/31 06:18:07;;;;;;;18.50;5.40;;;16.50;99.90;;;;;;4996715;28;20405;-77
2023/07/31 06:20:34;;;;;;;15.18;5.55;;;16.60;99.90;;;;;;4996700;28;20052;-77
2023/07/31 06:22:59;;;;;;;14.13;5.32;;;16.50;99.90;;;;;;5017530;28;20037;-77
2023/07/31 06:25:25;;;;;;;13.30;4.80;;;16.50;99.90;;;;;;5013431;28;20034;-77
2023/07/31 06:27:51;;;;;;;15.07;4.97;;;16.50;99.90;;;;;;5013090;28;20030;-77
2023/07/31 06:30:17;;;;;;;12.68;4.78;;;16.50;99.90;;;;;;4994264;28;20371;-76
2023/07/31 06:32:43;;;;;;;14.05;4.30;;;16.50;99.90;;;;;;5012533;28;20058;-77
2023/07/31 06:35:09;;;;;;;12.75;4.97;;;16.50;99.90;;;;;;5013989;28;20033;-78
2023/07/31 06:37:34;;;;;;;12.73;4.75;;;16.50;99.90;;;;;;5012826;28;20362;-78
2023/07/31 06:40:00;;;;;;;13.48;5.07;;;16.50;99.90;;;;;;5011326;28;20057;-77
2023/07/31 06:42:25;;;;;;;10.32;4.65;;;16.60;99.90;;;;;;5012887;28;20040;-76
2023/07/31 06:44:51;;;;;;;11.30;4.70;;;16.60;99.90;;;;;;5014141;28;20475;-77
2023/07/31 06:47:17;;;;;;;12.85;5.05;;;16.60;99.90;;;;;;5013762;28;20014;-76
2023/07/31 06:49:42;;;;;;;11.07;4.30;;;16.60;99.90;;;;;;5011987;28;20025;-76
2023/07/31 06:52:08;;;;;;;11.23;4.30;;;16.70;99.90;;;;;;5026566;28;20091;-77
2023/07/31 06:54:33;;;;;;;8.93;3.33;;;16.70;99.90;;;;;;5013681;28;20479;-76
2023/07/31 06:56:59;;;;;;;10.20;4.32;;;16.70;99.90;;;;;;5015611;28;20060;-75
2023/07/31 06:59:24;;;;;;;9.65;3.97;;;16.70;99.90;;;;;;5015539;28;20552;-76
2023/07/31 07:01:50;;;;;;;9.15;2.97;;;16.70;99.90;;;;;;5018927;28;20040;-77
2023/07/31 07:04:16;;;;;;;8.52;2.75;;;16.70;99.90;;;;;;5032181;28;20402;-77
2023/07/31 07:06:42;;;;;;;6.90;2.35;;;16.70;99.90;;;;;;5013767;28;20109;-77
2023/07/31 07:09:07;;;;;;;7.30;2.88;;;16.70;99.90;;;;;;4995936;28;20038;-81
2023/07/31 07:11:33;;;;;;;7.25;2.45;;;16.70;99.90;;;;;;5012441;28;20127;-80
2023/07/31 07:14:00;;;;;;;7.25;2.20;;;16.70;99.90;;;;;;5012433;28;20064;-82
2023/07/31 07:16:28;;;;;;;5.07;2.08;;;16.80;99.90;;;;;;5012772;28;20046;-82
2023/07/31 07:18:54;;;;;;;4.18;1.98;;;16.80;99.90;;;;;;5012463;28;20105;-82
2023/07/31 07:21:20;;;;;;;5.32;2.20;;;16.80;99.90;;;;;;4995975;28;20113;-83
2023/07/31 07:23:45;;;;;;;4.57;1.48;;;16.90;99.90;;;;;;5012170;28;20064;-81
2023/07/31 07:26:11;;;;;;;4.03;1.77;;;16.90;99.90;;;;;;5012361;28;20030;-81
2023/07/31 07:28:37;;;;;;;2.88;1.15;;;17.00;99.90;;;;;;5012207;28;20030;-80
2023/07/31 07:31:03;;;;;;;2.97;1.23;;;17.00;99.90;;;;;;5011965;28;20084;-81
2023/07/31 07:33:28;;;;;;;3.92;1.23;;;17.00;99.90;;;;;;5012192;28;20379;-81
2023/07/31 07:35:54;;;;;;;4.72;1.20;;;17.00;99.90;;;;;;4994921;28;20057;-80
2023/07/31 07:38:20;;;;;;;3.03;1.10;;;17.00;99.90;;;;;;5012862;28;20037;-80
2023/07/31 07:40:50;;;;;;;3.78;1.13;;;17.00;99.90;;;;;;5013344;28;20037;-80
2023/07/31 07:43:16;;;;;;;2.63;0.90;;;17.00;99.90;;;;;;5015658;28;20363;-81
2023/07/31 07:45:41;;;;;;;3.80;1.10;;;17.00;99.90;;;;;;5014975;28;20037;-80
2023/07/31 07:48:07;;;;;;;2.10;0.80;;;17.00;99.90;;;;;;4998235;28;20034;-80
2023/07/31 07:50:33;;;;;;;1.77;0.73;;;17.00;99.90;;;;;;4998715;28;20375;-81
2023/07/31 07:52:58;;;;;;;2.10;0.90;;;17.00;99.90;;;;;;5015941;28;20045;-81
2023/07/31 07:55:24;;;;;;;1.73;0.80;;;17.00;99.90;;;;;;4999253;28;20064;-81
2023/07/31 07:57:50;;;;;;;2.20;0.80;;;17.00;99.90;;;;;;5015914;28;20022;-81
2023/07/31 08:00:17;;;;;;;1.70;0.85;;;17.00;99.90;;;;;;5015929;28;20493;-80
2023/07/31 08:02:43;;;;;;;3.05;1.13;;;17.10;99.90;;;;;;5016878;28;20033;-83
2023/07/31 08:05:08;;;;;;;2.67;1.00;;;17.10;99.90;;;;;;4999074;28;20026;-82
2023/07/31 08:07:34;;;;;;;1.60;0.70;;;17.10;99.90;;;;;;4999150;28;20034;-82
2023/07/31 08:10:00;;;;;;;2.30;1.00;;;17.10;99.90;;;;;;4979194;28;20027;-82
2023/07/31 08:12:25;;;;;;;2.67;1.10;;;17.20;99.90;;;;;;4979619;28;20042;-82
2023/07/31 08:14:51;;;;;;;1.77;0.90;;;17.20;99.90;;;;;;4995884;28;20039;-82
2023/07/31 08:17:17;;;;;;;2.67;1.00;;;17.20;99.90;;;;;;4997038;28;20438;-81
2023/07/31 08:19:43;;;;;;;3.70;1.10;;;17.20;99.90;;;;;;4973923;28;20030;-81
2023/07/31 08:22:09;;;;;;;3.28;1.30;;;17.20;99.90;;;;;;5031491;28;20378;-83
2023/07/31 08:24:35;;;;;;;2.38;1.17;;;17.30;99.90;;;;;;4995522;28;20027;-80
2023/07/31 08:27:00;;;;;;;2.53;1.05;;;17.30;99.90;;;;;;5012120;28;20109;-82
2023/07/31 08:29:26;;;;;;;2.65;1.42;;;17.40;99.90;;;;;;4995527;28;20500;-84
2023/07/31 08:31:52;;;;;;;4.00;1.63;;;17.40;99.90;;;;;;4998539;28;20128;-83
2023/07/31 08:34:17;;;;;;;2.47;1.23;;;17.40;99.90;;;;;;5016210;28;20030;-83
2023/07/31 08:36:43;;;;;;;3.05;1.73;;;17.50;99.90;;;;;;5014272;28;20399;-82
2023/07/31 08:39:08;;;;;;;3.63;1.95;;;17.50;99.90;;;;;;5016106;28;20034;-82
2023/07/31 08:41:39;;;;;;;2.85;1.77;;;17.50;99.90;;;;;;5014475;28;20030;-82
2023/07/31 08:44:05;;;;;;;3.60;1.63;;;17.50;99.90;;;;;;5014635;28;20500;-82
2023/07/31 08:46:32;;;;;;;3.60;1.95;;;17.50;99.90;;;;;;5018970;28;20037;-82
2023/07/31 08:48:59;;;;;;;3.95;2.05;;;17.50;99.90;;;;;;5021588;28;20023;-82
2023/07/31 08:51:25;;;;;;;3.33;2.08;;;17.60;99.90;;;;;;4994139;28;20033;-80
2023/07/31 08:53:52;;;;;;;4.82;2.50;;;17.60;99.90;;;;;;4996759;28;20033;-77
2023/07/31 08:56:18;;;;;;;3.22;2.10;;;17.60;99.90;;;;;;5014395;28;20080;-75
2023/07/31 08:58:45;;;;;;;3.53;2.35;;;17.70;99.90;;;;;;4998323;28;20037;-78
2023/07/31 09:01:11;;;;;;;4.15;1.92;;;17.70;99.90;;;;;;4998074;28;20444;-78
2023/07/31 09:03:38;;;;;;;4.95;2.58;;;17.70;99.90;;;;;;5013675;28;20026;-78
2023/07/31 09:06:06;;;;;;;4.38;2.35;;;17.70;99.90;;;;;;5014220;28;20029;-78
2023/07/31 09:08:32;;;;;;;4.15;2.30;;;17.70;99.90;;;;;;5015329;28;20030;-77
2023/07/31 09:11:04;;;;;;;4.38;2.40;;;17.70;99.90;;;;;;4998086;28;20114;-77
2023/07/31 09:13:31;;;;;;;3.33;2.35;;;17.70;99.90;;;;;;5003426;28;20018;-77
2023/07/31 09:15:57;;;;;;;4.40;2.90;;;17.70;99.90;;;;;;5015681;28;20026;-77
2023/07/31 09:18:23;;;;;;;4.50;2.55;;;17.70;99.90;;;;;;5014485;28;20037;-78
2023/07/31 09:21:05;;;;;;;4.53;2.60;;;17.70;99.90;;;;;;5030562;28;20385;-77
2023/07/31 09:23:42;;;;;;;4.78;2.92;;;17.70;99.90;;;;;;5014967;28;20041;-81
2023/07/31 09:26:07;;;;;;;3.83;2.47;;;17.80;99.90;;;;;;5012598;28;20386;-82
2023/07/31 09:28:33;;;;;;;5.25;2.88;;;17.80;99.90;;;;;;5013367;28;20056;-82
2023/07/31 09:30:58;;;;;;;7.25;3.72;;;17.80;99.90;;;;;;5013473;28;20038;-76
2023/07/31 09:33:24;;;;;;;6.32;3.90;;;17.80;99.90;;;;;;5013174;28;20383;-82
2023/07/31 09:35:50;;;;;;;6.72;3.40;;;17.80;99.90;;;;;;4980856;28;20022;-77
2023/07/31 09:38:16;;;;;;;6.53;4.35;;;17.80;99.90;;;;;;4981032;28;20014;-78
2023/07/31 09:40:47;;;;;;;7.85;4.80;;;17.80;99.90;;;;;;5014795;28;20151;-80
2023/07/31 09:43:18;;;;;;;8.30;4.70;;;17.80;99.90;;;;;;5015164;28;20048;-82
2023/07/31 09:45:44;;;;;;;6.93;4.45;;;17.80;99.90;;;;;;5011846;28;20018;-79
2023/07/31 09:48:12;;;;;;;7.55;4.55;;;17.90;99.90;;;;;;5013300;28;20130;-84
2023/07/31 09:50:39;;;;;;;7.85;4.75;;;17.90;99.90;;;;;;5014265;28;20108;-83
2023/07/31 09:53:06;;;;;;;8.52;4.88;;;17.90;99.90;;;;;;5013543;28;20113;-77
2023/07/31 09:55:33;;;;;;;8.02;5.90;;;18.00;99.90;;;;;;5013448;28;20080;-79
2023/07/31 09:57:59;;;;;;;7.93;5.60;;;18.10;99.90;;;;;;4997096;28;20553;-81
2023/07/31 10:00:26;;;;;;;8.18;5.10;;;18.10;99.90;;;;;;5014505;28;20466;-78
2023/07/31 10:02:53;;;;;;;8.32;5.07;;;18.20;99.90;;;;;;4981174;28;20494;-82
2023/07/31 10:05:20;;;;;;;8.52;4.78;;;18.30;99.90;;;;;;5012909;28;20059;-84
2023/07/31 10:07:54;;;;;;;10.10;5.93;;;18.40;99.90;;;;;;5013518;28;20088;-78
2023/07/31 10:10:22;;;;;;;9.60;5.00;;;18.50;99.90;;;;;;4996284;28;20039;-78
2023/07/31 10:12:49;;;;;;;5.75;4.47;;;18.50;99.90;;;;;;5029852;28;20030;-84
2023/07/31 10:15:16;;;;;;;8.38;5.32;;;18.50;99.90;;;;;;5029728;28;20125;-86
2023/07/31 10:17:41;;;;;;;7.82;5.78;;;18.60;99.90;;;;;;5013353;28;20029;-85
2023/07/31 10:20:08;;;;;;;7.72;5.50;;;18.60;99.90;;;;;;5012981;28;20022;-84
2023/07/31 10:22:34;;;;;;;7.18;4.57;;;18.60;99.90;;;;;;5029509;28;20058;-83
2023/07/31 10:25:00;;;;;;;8.75;4.70;;;18.70;99.90;;;;;;5012928;28;20056;-84
2023/07/31 10:27:27;;;;;;;9.77;5.47;;;18.80;99.90;;;;;;5014020;28;20067;-78
2023/07/31 10:29:56;;;;;;;7.40;4.35;;;18.80;99.90;;;;;;5012047;28;20479;-79
2023/07/31 10:32:24;;;;;;;8.40;5.00;;;18.90;99.90;;;;;;5028785;28;20038;-78
2023/07/31 10:34:51;;;;;;;7.60;5.28;;;18.90;99.90;;;;;;5010398;28;20089;-78
2023/07/31 10:37:39;;;;;;;6.70;4.50;;;18.90;99.90;;;;;;5011886;28;20021;-76
2023/07/31 10:40:09;;;;;;;7.07;4.30;;;18.90;99.90;;;;;;5012742;28;20057;-85
2023/07/31 10:42:53;;;;;;;7.53;4.93;;;18.90;99.90;;;;;;4995860;28;20076;-85
2023/07/31 10:45:33;;;;;;;7.18;4.80;;;19.00;99.90;;;;;;4994407;28;20069;-86
2023/07/31 10:48:11;;;;;;;8.98;5.53;;;19.00;99.90;;;;;;4994226;28;20599;-77
2023/07/31 10:50:45;;;;;;;7.50;4.55;;;19.00;99.90;;;;;;4994532;28;20027;-78
2023/07/31 10:53:41;;;;;;;8.27;4.55;;;19.00;99.90;;;;;;5008901;28;20033;-78
2023/07/31 10:56:09;;;;;;;7.82;4.75;;;19.10;99.90;;;;;;4996369;28;20068;-79
2023/07/31 10:58:35;;;;;;;9.98;5.30;;;19.20;99.90;;;;;;5010372;28;20498;-78
2023/07/31 11:01:03;;;;;;;9.73;5.00;;;19.20;99.90;;;;;;5019644;28;20053;-78
2023/07/31 11:03:45;;;;;;;9.45;4.45;;;19.30;99.90;;;;;;5008708;28;20054;-78
2023/07/31 11:06:11;;;;;;;7.28;4.30;;;19.30;99.90;;;;;;5027368;28;20446;-79
2023/07/31 11:08:42;;;;;;;9.25;4.55;;;19.30;99.90;;;;;;5010332;28;20076;-79
2023/07/31 11:11:10;;;;;;;9.27;4.88;;;19.30;99.90;;;;;;5012271;28;20121;-79
2023/07/31 11:13:49;;;;;;;6.32;4.18;;;19.30;99.90;;;;;;5011308;28;20057;-84
2023/07/31 11:16:15;;;;;;;7.30;4.38;;;19.30;99.90;;;;;;5013099;28;20041;-85
2023/07/31 11:18:47;;;;;;;7.47;3.75;;;19.30;99.90;;;;;;4996184;28;20030;-77
2023/07/31 11:21:18;;;;;;;8.50;3.83;;;19.30;99.90;;;;;;5013399;28;20018;-78
2023/07/31 11:23:52;;;;;;;7.53;4.82;;;19.30;99.90;;;;;;5013212;28;20461;-79
2023/07/31 11:26:18;;;;;;;;;;;19.30;99.90;;;;;;5012824;28;20045;-84
2023/07/31 11:28:46;;;;;;;8.60;4.63;;;19.20;99.90;;;;;;5013461;28;19909;-85
2023/07/31 11:31:12;;;;;;;6.50;4.05;;;19.10;99.90;;;;;;5013580;28;20378;-85
2023/07/31 11:33:38;;;;;;;8.05;4.45;;;19.10;99.90;;;;;;5011851;28;20060;-84
2023/07/31 11:36:04;;;;;;;10.80;4.97;;;19.10;99.90;;;;;;4994522;28;20551;-85
2023/07/31 11:38:33;;;;;;;8.43;4.25;;;19.10;99.90;;;;;;5026240;28;20029;-86
2023/07/31 11:41:04;;;;;;;5.20;3.47;;;19.10;99.90;;;;;;5013305;28;20030;-86
2023/07/31 11:43:33;;;;;;;6.47;3.72;;;19.20;99.90;;;;;;5013098;28;20036;-85
2023/07/31 11:46:03;;;;;;;7.82;4.25;;;19.20;99.90;;;;;;4986826;28;20026;-84
2023/07/31 11:48:35;;;;;;;5.57;3.28;;;19.30;99.90;;;;;;4996220;28;20034;-80
2023/07/31 11:51:03;;;;;;;9.32;3.88;;;19.30;99.90;;;;;;5011213;28;20018;-87
2023/07/31 11:53:36;;;;;;;5.40;3.80;;;19.30;99.90;;;;;;5011920;28;20521;-85
2023/07/31 11:56:04;;;;;;;6.28;3.20;;;19.40;99.90;;;;;;5011604;28;20080;-84
2023/07/31 11:58:34;;;;;;;5.57;2.67;;;19.40;99.90;;;;;;5011708;28;20052;-85
2023/07/31 12:01:00;;;;;;;5.28;3.05;;;19.40;99.90;;;;;;5012059;28;20133;-86
2023/07/31 12:03:26;;;;;;;5.43;3.65;;;19.50;99.90;;;;;;5011858;28;20033;-84
2023/07/31 12:05:53;;;;;;;7.95;3.05;;;19.50;99.90;;;;;;4995721;28;20076;-84
2023/07/31 12:08:21;;;;;;;6.97;3.60;;;19.40;99.90;;;;;;5000196;28;20540;-86
2023/07/31 12:10:50;;;;;;;6.75;3.08;;;19.50;99.90;;;;;;5028147;28;20033;-84
2023/07/31 12:13:26;;;;;;;6.50;3.05;;;19.40;99.90;;;;;;5013105;28;20030;-83
2023/07/31 12:15:57;;;;;;;4.82;2.72;;;19.50;99.90;;;;;;5012769;28;20136;-85
2023/07/31 12:18:24;;;;;;;8.55;3.22;;;19.50;99.90;;;;;;5012935;28;20092;-88
2023/07/31 12:20:55;;;;;;;6.20;3.28;;;19.50;99.90;;;;;;5013037;28;20022;-86
2023/07/31 12:23:27;;;;;;;5.68;2.97;;;19.60;99.90;;;;;;5011420;28;20067;-85
2023/07/31 12:26:13;;;;;;;5.07;2.58;;;19.60;99.90;;;;;;5011540;28;20025;-86
2023/07/31 12:28:45;;;;;;;5.25;3.33;;;19.60;99.90;;;;;;5009502;28;20026;-87
2023/07/31 12:31:17;;;;;;;7.45;3.55;;;19.60;99.90;;;;;;5002832;28;20030;-85
2023/07/31 12:33:43;;;;;;;7.90;3.65;;;19.60;99.90;;;;;;5011590;28;20494;-86
2023/07/31 12:36:23;;;;;;;7.03;3.88;;;19.50;99.90;;;;;;5009511;28;20037;-83
2023/07/31 12:38:51;;;;;;;6.35;3.08;;;19.50;99.90;;;;;;4996555;28;20026;-85